createdAt,value
2019-06-07T00:02:18.625Z,95.33
2019-06-07T00:04:51.046Z,95.12
2019-06-07T00:07:22.997Z,94.94
2019-06-07T00:09:55.108Z,95.26
2019-06-07T00:12:27.074Z,95.46
2019-06-07T00:15:00.207Z,95.43
2019-06-07T00:17:32.166Z,95.88
2019-06-07T00:20:08.510Z,96.00
2019-06-07T00:22:39.915Z,96.01
2019-06-07T00:25:15.887Z,96.37
2019-06-07T00:27:47.702Z,96.75
2019-06-07T00:30:50.659Z,96.80
2019-06-07T00:32:55.539Z,96.84
2019-06-07T00:35:27.592Z,96.52
2019-06-07T00:37:59.555Z,96.63
2019-06-07T00:40:32.382Z,96.61
2019-06-07T00:43:04.627Z,96.55
2019-06-07T00:45:36.530Z,96.55
2019-06-07T00:48:08.464Z,96.73
2019-06-07T00:50:40.380Z,96.76
2019-06-07T00:53:17.257Z,96.56
2019-06-07T00:55:46.043Z,96.77
2019-06-07T00:58:21.836Z,96.94
2019-06-07T01:00:51.667Z,96.74
2019-06-07T01:03:25.813Z,96.81
2019-06-07T01:05:57.639Z,96.84
2019-06-07T01:08:30.248Z,97.03
2019-06-07T01:11:02.729Z,97.12
2019-06-07T01:13:35.366Z,97.18
2019-06-07T01:16:07.483Z,97.29
2019-06-07T01:18:46.193Z,97.44
2019-06-07T01:21:15.902Z,97.73
2019-06-07T01:24:08.053Z,97.66
2019-06-07T01:26:26.416Z,98.02
2019-06-07T01:28:57.899Z,98.24
2019-06-07T01:31:31.955Z,98.35
2019-06-07T01:34:04.443Z,98.47
2019-06-07T01:36:36.389Z,98.69
2019-06-07T01:39:08.659Z,98.47
2019-06-07T01:41:40.835Z,98.51
2019-06-07T01:44:13.355Z,98.76
2019-06-07T01:46:45.499Z,98.47
2019-06-07T01:49:17.387Z,97.98
2019-06-07T01:51:49.313Z,97.62
2019-06-07T01:56:55.960Z,97.67
2019-06-07T01:59:31.028Z,97.42
2019-06-07T02:02:01.618Z,97.00
2019-06-07T02:04:33.879Z,96.64
2019-06-07T02:07:05.992Z,96.54
2019-06-07T02:09:37.879Z,96.40
2019-06-07T02:12:25.477Z,96.08
2019-06-07T02:14:52.142Z,95.80
2019-06-07T02:17:30.946Z,95.70
2019-06-07T02:20:02.221Z,95.54
2019-06-07T02:22:34.251Z,95.33
2019-06-07T02:27:41.228Z,94.67
2019-06-07T02:32:47.168Z,94.77
2019-06-07T02:35:19.250Z,94.67
2019-06-07T02:37:51.224Z,93.63
2019-06-07T02:40:24.556Z,93.73
2019-06-07T02:42:57.217Z,93.53
2019-06-07T02:45:36.170Z,93.87
2019-06-07T02:48:04.010Z,93.68
2019-06-07T02:50:38.703Z,93.57
2019-06-07T02:53:10.177Z,93.13
2019-06-07T02:56:33.265Z,92.86
2019-06-07T02:58:15.694Z,92.48
2019-06-07T03:01:09.188Z,92.30
2019-06-07T03:03:24.681Z,91.46
2019-06-07T03:05:57.862Z,90.85
2019-06-07T03:08:35.446Z,90.98
2019-06-07T03:11:06.813Z,90.45
2019-06-07T03:13:40.996Z,90.50
2019-06-07T03:16:15.137Z,90.50
2019-06-07T03:18:55.992Z,90.48
2019-06-07T03:21:33.754Z,90.05
2019-06-07T03:24:05.843Z,89.90
2019-06-07T03:27:30.530Z,89.84
2019-06-07T03:29:12.338Z,89.84
2019-06-07T03:31:47.750Z,89.59
2019-06-07T03:34:17.799Z,89.47
2019-06-07T03:36:49.762Z,89.34
2019-06-07T03:39:21.766Z,88.99
2019-06-07T03:42:05.912Z,88.81
2019-06-07T03:44:28.568Z,88.66
2019-06-07T03:47:01.055Z,88.77
2019-06-07T03:49:38.783Z,88.51
2019-06-07T03:52:06.722Z,88.25
2019-06-07T03:54:39.900Z,87.53
2019-06-07T03:57:11.976Z,87.23
2019-06-07T03:59:43.882Z,86.33
2019-06-07T04:02:15.917Z,86.32
2019-06-07T04:04:47.845Z,85.93
2019-06-07T04:07:19.684Z,85.41
2019-06-07T04:09:51.756Z,85.47
2019-06-07T04:12:23.789Z,85.25
2019-06-07T04:14:55.723Z,84.92
2019-06-07T04:17:31.152Z,84.68
2019-06-07T04:20:01.490Z,84.77
2019-06-07T04:22:38.831Z,84.23
2019-06-07T04:25:12.522Z,84.16
2019-06-07T04:27:44.530Z,84.41
2019-06-07T04:30:26.599Z,84.29
2019-06-07T04:32:58.503Z,84.61
2019-06-07T04:35:31.396Z,84.15
2019-06-07T04:38:04.395Z,84.69
2019-06-07T04:40:39.960Z,84.91
2019-06-07T04:43:11.407Z,84.51
2019-06-07T04:45:50.808Z,84.78
2019-06-07T04:48:18.776Z,84.78
2019-06-07T04:50:52.466Z,84.42
2019-06-07T04:53:24.610Z,83.69
2019-06-07T04:55:57.008Z,82.25
2019-06-07T04:58:30.451Z,82.52
2019-06-07T05:01:03.850Z,82.46
2019-06-07T05:03:38.857Z,83.05
2019-06-07T05:06:09.626Z,83.45
2019-06-07T05:08:43.588Z,82.60
2019-06-07T05:11:15.310Z,82.51
2019-06-07T05:13:47.271Z,82.36
2019-06-07T05:16:19.256Z,80.73
2019-06-07T05:18:51.196Z,80.21
2019-06-07T05:21:23.122Z,81.11
2019-06-07T05:24:06.394Z,80.47
2019-06-07T05:26:30.500Z,81.35
2019-06-07T05:29:02.216Z,81.41
2019-06-07T05:31:35.785Z,80.81
2019-06-07T05:34:07.766Z,80.34
2019-06-07T05:36:44.271Z,79.24
2019-06-07T05:39:13.452Z,78.52
2019-06-07T05:41:45.431Z,78.44
2019-06-07T05:44:17.399Z,78.04
2019-06-07T05:46:49.468Z,79.04
2019-06-07T05:49:22.454Z,79.01
2019-06-07T05:51:54.410Z,79.39
2019-06-07T05:54:26.326Z,78.79
2019-06-07T05:56:58.298Z,78.63
2019-06-07T05:59:30.277Z,79.35
2019-06-07T06:02:21.216Z,80.42
2019-06-07T06:04:39.327Z,80.54
2019-06-07T06:07:11.049Z,80.53
2019-06-07T06:09:43.821Z,81.44
2019-06-07T06:12:34.117Z,82.38
2019-06-07T06:14:52.045Z,82.20
2019-06-07T06:17:24.336Z,81.32
2019-06-07T06:19:56.214Z,82.18
2019-06-07T06:22:28.135Z,82.39
2019-06-07T06:25:30.751Z,83.35
2019-06-07T06:30:12.895Z,83.25
2019-06-07T06:32:52.644Z,81.90
2019-06-07T06:35:19.545Z,81.37
2019-06-07T06:37:53.466Z,80.50
2019-06-07T06:40:26.686Z,78.46
2019-06-07T06:42:58.677Z,78.32
2019-06-07T06:45:30.605Z,78.08
2019-06-07T06:48:02.610Z,79.71
2019-06-07T06:50:34.648Z,78.39
2019-06-07T06:53:52.599Z,78.11
2019-06-07T06:56:25.670Z,79.13
2019-06-07T06:59:35.186Z,80.27
2019-06-07T07:01:31.677Z,81.98
2019-06-07T07:04:11.982Z,82.56
2019-06-07T07:06:38.337Z,82.34
2019-06-07T07:09:10.276Z,82.12
2019-06-07T07:11:55.235Z,82.22
2019-06-07T07:14:16.082Z,82.14
2019-06-07T07:16:53.557Z,82.43
2019-06-07T07:19:21.660Z,82.71
2019-06-07T07:21:55.321Z,80.81
2019-06-07T07:24:28.190Z,80.73
2019-06-07T07:27:00.199Z,81.06
2019-06-07T07:29:32.391Z,82.30
2019-06-07T07:32:04.463Z,81.91
2019-06-07T07:34:37.566Z,82.07
2019-06-07T07:37:09.753Z,83.95
2019-06-07T07:39:41.667Z,84.40
2019-06-07T07:42:20.889Z,83.96
2019-06-07T07:44:49.887Z,83.14
2019-06-07T07:47:21.049Z,82.87
2019-06-07T07:49:56.388Z,80.97
2019-06-07T07:52:26.636Z,80.24
2019-06-07T07:54:58.652Z,79.06
2019-06-07T07:57:30.538Z,77.96
2019-06-07T08:00:36.881Z,77.30
2019-06-07T08:02:36.129Z,77.37
2019-06-07T08:05:25.251Z,77.93
2019-06-07T08:07:42.194Z,77.56
2019-06-07T08:10:14.573Z,76.48
2019-06-07T08:13:08.915Z,74.66
2019-06-07T08:15:20.532Z,71.63
2019-06-07T08:17:58.041Z,69.40
2019-06-07T08:20:26.162Z,67.38
2019-06-07T08:23:01.134Z,67.04
2019-06-07T08:25:32.825Z,66.31
2019-06-07T08:28:05.780Z,65.87
2019-06-07T08:30:58.353Z,66.07
2019-06-07T08:33:25.305Z,66.17
2019-06-07T08:36:06.035Z,64.78
2019-06-07T08:38:27.296Z,67.19
2019-06-07T08:40:56.726Z,68.24
2019-06-07T08:43:25.857Z,70.23
2019-06-07T08:46:02.277Z,69.17
2019-06-07T08:48:31.486Z,68.98
2019-06-07T08:51:08.057Z,67.81
2019-06-07T08:53:37.091Z,69.18
2019-06-07T08:56:10.930Z,69.37
2019-06-07T08:58:42.543Z,68.02
2019-06-07T09:01:14.528Z,67.82
2019-06-07T09:03:46.480Z,65.06
2019-06-07T09:07:01.227Z,65.18
2019-06-07T09:08:53.337Z,65.44
2019-06-07T09:11:25.871Z,66.53
2019-06-07T09:14:02.157Z,64.88
2019-06-07T09:16:31.616Z,66.18
2019-06-07T09:19:10.312Z,67.02
2019-06-07T09:21:38.565Z,66.34
2019-06-07T09:24:11.965Z,67.24
2019-06-07T09:26:44.316Z,65.01
2019-06-07T09:29:16.738Z,64.35
2019-06-07T09:31:53.138Z,63.08
2019-06-07T09:34:22.385Z,62.57
2019-06-07T09:36:57.531Z,61.51
2019-06-07T09:39:28.435Z,61.70
2019-06-07T09:42:01.643Z,58.88
2019-06-07T09:44:34.114Z,58.09
2019-06-07T09:47:22.194Z,58.01
2019-06-07T09:49:39.803Z,57.80
2019-06-07T09:52:11.682Z,58.97
2019-06-07T09:55:06.240Z,59.00
2019-06-07T09:57:18.011Z,59.08
2019-06-07T09:59:50.820Z,57.85
2019-06-07T10:02:22.848Z,58.43
2019-06-07T10:04:54.731Z,59.33
2019-06-07T10:07:31.687Z,59.98
2019-06-07T10:12:34.867Z,61.11
2019-06-07T10:15:08.939Z,58.11
2019-06-07T10:17:41.133Z,58.01
2019-06-07T10:20:13.243Z,54.42
2019-06-07T10:22:45.150Z,52.83
2019-06-07T10:25:17.059Z,55.27
2019-06-07T10:27:49.043Z,53.67
2019-06-07T10:30:22.508Z,53.57
2019-06-07T10:32:54.433Z,54.47
2019-06-07T10:35:26.604Z,54.63
2019-06-07T10:37:58.714Z,52.88
2019-06-07T10:40:30.662Z,55.00
2019-06-07T10:43:03.046Z,52.94
2019-06-07T10:45:35.085Z,53.25
2019-06-07T10:48:07.651Z,52.29
2019-06-07T10:50:39.608Z,53.21
2019-06-07T10:53:12.539Z,52.40
2019-06-07T10:55:45.825Z,54.90
2019-06-07T10:58:17.809Z,53.23
2019-06-07T11:00:49.756Z,55.72
2019-06-07T11:03:21.689Z,55.99
2019-06-07T11:05:53.723Z,56.36
2019-06-07T11:08:25.663Z,53.88
2019-06-07T11:10:57.708Z,55.02
2019-06-07T11:13:29.757Z,55.01
2019-06-07T11:16:01.712Z,53.16
2019-06-07T11:18:33.810Z,54.56
2019-06-07T11:21:08.426Z,55.79
2019-06-07T11:23:40.714Z,55.88
2019-06-07T11:26:12.606Z,54.75
2019-06-07T11:28:44.578Z,54.92
2019-06-07T11:31:16.541Z,55.71
2019-06-07T11:33:48.537Z,55.16
2019-06-07T11:36:21.753Z,53.93
2019-06-07T11:38:53.840Z,53.28
2019-06-07T11:41:26.075Z,50.55
2019-06-07T11:43:58.093Z,50.06
2019-06-07T11:46:30.264Z,53.14
2019-06-07T11:49:02.277Z,52.01
2019-06-07T11:51:34.279Z,48.71
2019-06-07T11:54:07.789Z,48.67
2019-06-07T11:56:39.881Z,48.04
2019-06-07T11:59:13.141Z,48.41
2019-06-07T12:01:45.442Z,47.52
2019-06-07T12:04:32.389Z,48.26
2019-06-07T12:06:51.099Z,47.47
2019-06-07T12:09:23.109Z,48.26
2019-06-07T12:11:54.967Z,48.74
2019-06-07T12:14:26.867Z,48.74
2019-06-07T12:16:58.759Z,51.48
2019-06-07T12:19:30.949Z,47.45
2019-06-07T12:22:02.840Z,47.71
2019-06-07T12:24:34.743Z,48.30
2019-06-07T12:27:06.715Z,48.77
2019-06-07T12:29:38.539Z,47.44
2019-06-07T12:32:11.237Z,46.72
2019-06-07T12:34:43.301Z,47.94
2019-06-07T12:37:18.939Z,47.91
2019-06-07T12:39:48.970Z,46.93
2019-06-07T12:42:21.078Z,47.09
2019-06-07T12:44:53.013Z,46.33
2019-06-07T12:47:25.069Z,47.06
2019-06-07T12:49:57.020Z,46.62
2019-06-07T12:52:28.975Z,46.48
2019-06-07T12:55:01.151Z,48.53
2019-06-07T12:57:33.009Z,47.81
2019-06-07T13:00:13.946Z,46.66
2019-06-07T13:02:47.031Z,47.71
2019-06-07T13:05:19.969Z,48.52
2019-06-07T13:07:52.120Z,49.20
2019-06-07T13:10:24.199Z,49.25
2019-06-07T13:12:56.241Z,49.07
2019-06-07T13:15:28.382Z,48.71
2019-06-07T13:18:00.591Z,49.63
2019-06-07T13:20:32.634Z,50.55
2019-06-07T13:23:04.705Z,49.58
2019-06-07T13:25:46.363Z,49.25
2019-06-07T13:28:10.466Z,49.25
2019-06-07T13:30:42.383Z,48.65
2019-06-07T13:33:14.327Z,46.53
2019-06-07T13:35:46.969Z,47.48
2019-06-07T13:38:26.698Z,47.35
2019-06-07T13:41:04.642Z,47.61
2019-06-07T13:43:36.469Z,47.62
2019-06-07T13:46:12.679Z,46.47
2019-06-07T13:48:42.108Z,48.58
2019-06-07T13:51:14.042Z,47.53
2019-06-07T13:53:45.851Z,48.04
2019-06-07T13:56:17.834Z,48.75
2019-06-07T13:58:49.798Z,47.23
2019-06-07T14:01:22.460Z,48.38
2019-06-07T14:03:54.785Z,47.92
2019-06-07T14:06:28.156Z,47.53
2019-06-07T14:09:00.512Z,46.69
2019-06-07T14:11:49.510Z,45.40
2019-06-07T14:14:07.892Z,45.90
2019-06-07T14:16:39.968Z,46.80
2019-06-07T14:19:11.830Z,47.03
2019-06-07T14:21:44.630Z,45.52
2019-06-07T14:24:16.450Z,45.83
2019-06-07T14:27:06.609Z,45.63
2019-06-07T14:29:39.537Z,44.74
2019-06-07T14:32:11.510Z,44.89
2019-06-07T14:34:43.459Z,44.13
2019-06-07T14:37:15.438Z,45.71
2019-06-07T14:39:47.409Z,46.11
2019-06-07T14:42:19.353Z,44.97
2019-06-07T14:44:51.209Z,46.71
2019-06-07T14:47:40.020Z,47.35
2019-06-07T14:50:12.897Z,48.61
2019-06-07T14:52:44.802Z,47.47
2019-06-07T14:55:16.890Z,48.30
2019-06-07T14:57:49.055Z,47.31
2019-06-07T15:00:22.769Z,47.88
2019-06-07T15:02:54.675Z,49.43
2019-06-07T15:05:31.339Z,48.04
2019-06-07T15:08:05.249Z,47.56
2019-06-07T15:10:37.225Z,47.56
2019-06-07T15:13:09.269Z,45.72
2019-06-07T15:15:41.604Z,47.14
2019-06-07T15:18:13.527Z,45.25
2019-06-07T15:20:45.401Z,44.74
2019-06-07T15:23:17.325Z,44.33
2019-06-07T15:25:49.145Z,42.40
2019-06-07T15:28:21.520Z,42.87
2019-06-07T15:30:53.383Z,42.66
2019-06-07T15:33:27.773Z,43.94
2019-06-07T15:35:59.748Z,42.24
2019-06-07T15:38:33.090Z,42.72
2019-06-07T15:41:05.186Z,45.18
2019-06-07T15:43:37.519Z,44.92
2019-06-07T15:46:09.550Z,45.14
2019-06-07T15:48:41.541Z,47.42
2019-06-07T15:51:13.398Z,46.32
2019-06-07T15:53:45.310Z,45.04
2019-06-07T15:56:17.185Z,46.00
2019-06-07T15:58:49.182Z,46.50
2019-06-07T16:01:21.055Z,47.27
2019-06-07T16:03:53.138Z,46.73
2019-06-07T16:06:25.183Z,47.09
2019-06-07T16:08:57.250Z,49.12
2019-06-07T16:11:29.285Z,47.01
2019-06-07T16:14:01.497Z,46.61
2019-06-07T16:16:35.045Z,48.81
2019-06-07T16:19:07.327Z,46.70
2019-06-07T16:21:39.541Z,46.46
2019-06-07T16:24:11.548Z,46.80
2019-06-07T16:26:44.563Z,43.35
2019-06-07T16:29:16.759Z,43.08
2019-06-07T16:31:48.722Z,44.00
2019-06-07T16:34:20.724Z,45.03
2019-06-07T16:36:52.686Z,42.25
2019-06-07T16:39:24.669Z,42.24
2019-06-07T16:41:56.860Z,43.59
2019-06-07T16:44:30.462Z,43.08
2019-06-07T16:47:02.579Z,43.87
2019-06-07T16:49:34.711Z,43.96
2019-06-07T16:52:06.683Z,44.15
2019-06-07T16:54:39.331Z,43.02
2019-06-07T16:57:11.273Z,45.61
2019-06-07T16:59:49.075Z,42.79
2019-06-07T17:02:20.014Z,42.55
2019-06-07T17:04:52.012Z,43.72
2019-06-07T17:07:23.829Z,42.83
2019-06-07T17:09:55.801Z,43.40
2019-06-07T17:12:27.765Z,43.94
2019-06-07T17:14:59.734Z,43.22
2019-06-07T17:17:31.604Z,44.68
2019-06-07T17:20:04.807Z,43.33
2019-06-07T17:22:37.300Z,45.36
2019-06-07T17:25:11.678Z,44.29
2019-06-07T17:27:43.977Z,46.17
2019-06-07T17:30:16.889Z,47.20
2019-06-07T17:32:58.501Z,46.75
2019-06-07T17:35:22.667Z,47.08
2019-06-07T17:37:54.706Z,46.90
2019-06-07T17:40:26.754Z,48.28
2019-06-07T17:42:58.755Z,48.98
2019-06-07T17:45:31.021Z,48.03
2019-06-07T17:48:03.104Z,49.37
2019-06-07T17:50:35.294Z,49.38
2019-06-07T17:53:07.943Z,49.76
2019-06-07T17:55:41.959Z,50.54
2019-06-07T17:58:13.983Z,51.32
2019-06-07T18:00:58.789Z,51.36
2019-06-07T18:03:30.760Z,51.48
2019-06-07T18:06:04.516Z,51.73
2019-06-07T18:08:36.803Z,51.51
2019-06-07T18:11:08.800Z,52.70
2019-06-07T18:13:41.177Z,52.74
2019-06-07T18:16:13.306Z,54.50
2019-06-07T18:18:46.875Z,54.81
2019-06-07T18:21:19.692Z,54.91
2019-06-07T18:23:52.998Z,55.01
2019-06-07T18:26:25.418Z,55.27
2019-06-07T18:28:59.296Z,56.40
2019-06-07T18:31:32.048Z,56.18
2019-06-07T18:34:03.932Z,57.35
2019-06-07T18:36:37.517Z,57.94
2019-06-07T18:39:09.989Z,57.59
2019-06-07T18:41:43.488Z,58.17
2019-06-07T18:44:21.544Z,59.30
2019-06-07T18:46:50.136Z,60.40
2019-06-07T18:49:22.251Z,60.37
2019-06-07T18:52:15.265Z,61.61
2019-06-07T18:54:48.722Z,61.59
2019-06-07T18:57:20.968Z,63.10
2019-06-07T18:59:52.863Z,63.48
2019-06-07T19:02:25.874Z,63.16
2019-06-07T19:04:59.823Z,64.88
2019-06-07T19:07:31.693Z,65.68
2019-06-07T19:10:11.344Z,67.50
2019-06-07T19:12:44.678Z,67.43
2019-06-07T19:15:19.514Z,66.74
2019-06-07T19:17:52.164Z,67.34
2019-06-07T19:20:24.404Z,67.81
2019-06-07T19:22:56.574Z,67.75
2019-06-07T19:25:28.563Z,68.76
2019-06-07T19:28:01.097Z,68.25
2019-06-07T19:30:33.234Z,68.81
2019-06-07T19:33:48.458Z,68.71
2019-06-07T19:36:08.688Z,69.42
2019-06-07T19:38:40.803Z,69.63
2019-06-07T19:41:19.648Z,69.59
2019-06-07T19:43:48.153Z,70.69
2019-06-07T19:46:20.087Z,72.77
2019-06-07T19:48:52.506Z,71.74
2019-06-07T19:51:24.527Z,73.20
2019-06-07T19:53:57.106Z,72.46
2019-06-07T19:56:29.112Z,74.03
2019-06-07T19:59:01.815Z,74.16
2019-06-07T20:01:34.287Z,75.16
2019-06-07T20:04:06.269Z,76.20
2019-06-07T20:06:38.330Z,75.28
2019-06-07T20:09:10.356Z,75.26
2019-06-07T20:11:42.397Z,75.67
2019-06-07T20:14:14.532Z,75.93
2019-06-07T20:16:46.423Z,76.88
2019-06-07T20:19:18.625Z,76.44
2019-06-07T20:21:50.605Z,76.43
2019-06-07T20:24:27.409Z,77.86
2019-06-07T20:26:56.238Z,77.43
2019-06-07T20:29:30.129Z,77.62
2019-06-07T20:32:02.514Z,76.92
2019-06-07T20:34:34.629Z,76.48
2019-06-07T20:37:07.729Z,76.80
2019-06-07T20:39:40.295Z,77.07
2019-06-07T20:42:12.223Z,77.36
2019-06-07T20:47:52.154Z,78.72
2019-06-07T20:50:24.052Z,77.62
2019-06-07T20:52:55.956Z,77.96
2019-06-07T20:55:27.862Z,78.14
2019-06-07T20:58:01.185Z,79.51
2019-06-07T21:00:33.315Z,79.42
2019-06-07T21:03:07.246Z,79.25
2019-06-07T21:05:39.394Z,79.90
2019-06-07T21:08:12.875Z,79.26
2019-06-07T21:10:45.198Z,80.09
2019-06-07T21:13:17.171Z,79.59
2019-06-07T21:15:49.494Z,79.95
2019-06-07T21:18:21.673Z,79.09
2019-06-07T21:20:53.763Z,79.58
2019-06-07T21:23:25.653Z,80.22
2019-06-07T21:25:58.744Z,81.20
2019-06-07T21:28:30.798Z,81.14
2019-06-07T21:31:03.786Z,81.79
2019-06-07T21:33:36.361Z,83.22
2019-06-07T21:36:09.706Z,82.91
2019-06-07T21:38:41.694Z,82.58
2019-06-07T21:41:13.669Z,82.78
2019-06-07T21:43:45.653Z,83.16
2019-06-07T21:46:20.441Z,84.00
2019-06-07T21:48:51.524Z,82.38
2019-06-07T21:51:23.564Z,82.25
2019-06-07T21:53:57.108Z,82.15
2019-06-07T21:56:29.165Z,82.60
2019-06-07T21:59:01.129Z,81.87
2019-06-07T22:01:33.774Z,81.73
2019-06-07T22:04:07.339Z,82.29
2019-06-07T22:06:39.606Z,81.80
2019-06-07T22:09:12.372Z,82.67
2019-06-07T22:11:44.447Z,82.53
2019-06-07T22:14:16.339Z,82.82
2019-06-07T22:16:48.268Z,83.56
2019-06-07T22:19:20.096Z,83.27
2019-06-07T22:22:02.234Z,82.95
2019-06-07T22:24:25.803Z,82.56
2019-06-07T22:26:57.705Z,82.64
2019-06-07T22:29:29.630Z,82.23
2019-06-07T22:32:01.675Z,81.56
2019-06-07T22:34:33.657Z,82.64
2019-06-07T22:37:07.049Z,83.52
2019-06-07T22:39:39.257Z,82.51
2019-06-07T22:42:13.507Z,84.11
2019-06-07T22:44:45.539Z,83.66
2019-06-07T22:47:18.319Z,83.37
2019-06-07T22:49:50.466Z,83.86
2019-06-07T22:52:22.501Z,83.68
2019-06-07T22:54:54.469Z,83.70
2019-06-07T22:57:29.198Z,83.63
2019-06-07T23:00:08.590Z,84.48
2019-06-07T23:02:35.146Z,85.08
2019-06-07T23:05:08.430Z,85.06
2019-06-07T23:07:40.604Z,85.33
2019-06-07T23:10:13.390Z,84.80
2019-06-07T23:12:45.469Z,86.05
2019-06-07T23:15:18.142Z,86.60
2019-06-07T23:17:51.366Z,85.65
2019-06-07T23:20:23.507Z,86.54
2019-06-07T23:23:01.791Z,85.64
2019-06-07T23:25:33.699Z,84.81
2019-06-07T23:28:05.828Z,85.01
2019-06-07T23:30:37.935Z,84.73
2019-06-07T23:33:14.824Z,84.78
2019-06-07T23:35:58.829Z,85.40
2019-06-07T23:38:30.881Z,84.63
2019-06-07T23:41:17.634Z,84.65
2019-06-07T23:43:55.761Z,84.60
2019-06-07T23:47:10.890Z,85.44
2019-06-07T23:49:36.840Z,85.45
2019-06-07T23:52:11.329Z,85.36
2019-06-07T23:54:44.904Z,85.90
2019-06-07T23:57:18.866Z,86.23
2019-06-07T23:59:50.704Z,86.41
